Sherwood, MD

10:07 PM EDT on April 19, 2015 (GMT -0400)
Annapolis Naval Academy | | Change Station
CLOSE
Current Station
Airport
Location: Annapolis Naval Academy,
Elevation: 7 ft
Nearby Weather Stations

Elev 7 ft 38.99 °N, 76.49 °W | Updated 13 minutes ago

Rain
Rain
53 °F
Feels Like 53 °F
N
15
Wind Variable Wind from East
Gusts 20 mph

Today
High -- | Low -- °F
--% Chance of Precip.
Yesterday
High -- | Low -- °F
Precip. -- in
6:23 AM 7:45 PM
New Moon, 2% visible
Pressure 30.01 in
Visibility 10.0 miles
Clouds Overcast 2600 ft
Dew Point 47 °F
Humidity 80%
Rainfall 0.01 in
Snow Depth Not available.
UV 0 out of 12
Pollen 9.30 out of 12
Air Quality Not available.
Flu Activity Regional
METAR KNAK 200154Z AUTO 10013G17KT 10SM -RA OVC026 12/08 A3001 RMK AO2 SLP163 P0001 T01170083

More Conditions Fewer Conditions

Pressure 30.01 in
Visibility 10.0 miles
Clouds Overcast 2600 ft
Dew Point 47 °F
Humidity 80%
Rainfall 0.01 in
Snow Depth Not available.
UV 0 out of 12
Pollen 9.30 out of 12
Air Quality Not available.
Flu Activity Regional
METAR KNAK 200154Z AUTO 10013G17KT 10SM -RA OVC026 12/08 A3001 RMK AO2 SLP163 P0001 T01170083

More Conditions Fewer Conditions

Nowcast | as of 9:30 PM EDT on April 19, 2015

Scattered sprinkles will occur between now and 11 PM over Delaware, Maryland's Eastern Shore, southwest New Jersey and southeast Pennsylvania. The widespread and steadier rain will be reserved for the period beginning shortly after midnight.

×

10-Day Weather Forecast

Almanac

Astronomy

Apr. 19, 2015 Rise Set
Actual Time
Civil Twilight
Nautical Twilight
Astronomical Twilight
Moon
Length of Visible Light
Length of Day
Tomorrow will be .
, % of the Moon is Illuminated

Today's Extremes

State Highs State Lows

Community

WunderPhotos

Upload Photos

1,815,097 photos uploaded!

WunderBlogs® & News

Nearby

Air Quality

  Air Quality AQ Index Pollutant
Not available.

Snow Depth

Station Depth Elevation

Earthquake Activity

City Distance Mag. Time & Date
Minimum magnitude displayed is 2.5.

Coastal Water Temperatures

Place Temperature

Stations

Nearby Weather Stations

Station Location Temp. Windchill Dew Point Humidity Wind Precip. Elev Updated Type